Time;durP1;ratioP1;P1;durP2;ratioP2;P2;SDS_P1;SDS_P2;PMS_P1;PMS_P2;Temp;Humidity;BMP_temperature;BMP_pressure;BME280_temperature;BME280_humidity;BME280_pressure;Samples;Min_cycle;Max_cycle;Signal;HPM_P1;HPM_P2
2023/03/03 00:00:07;;;;;;;;;;;19.70;75.30;;;;;;5095364;28;19950;-53
2023/03/03 00:02:32;;;;;;;;;;;19.70;75.50;;;;;;5080046;28;19909;-49
2023/03/03 00:04:57;;;;;;;;;;;19.60;75.90;;;;;;5074992;28;20416;-50
2023/03/03 00:07:23;;;;;;;;;;;19.40;76.00;;;;;;5074580;28;19911;-50
2023/03/03 00:09:49;;;;;;;;;;;19.30;76.40;;;;;;5074645;28;19905;-49
2023/03/03 00:12:21;;;;;;;;;;;19.20;76.80;;;;;;5074910;28;20015;-50
2023/03/03 00:14:47;;;;;;;;;;;19.10;77.10;;;;;;5074842;28;19905;-47
2023/03/03 00:17:15;;;;;;;;;;;18.90;77.30;;;;;;5074490;28;19912;-51
2023/03/03 00:19:43;;;;;;;;;;;18.90;77.60;;;;;;5074488;28;19905;-47
2023/03/03 00:22:14;;;;;;;;;;;18.80;77.30;;;;;;5074581;28;19961;-47
2023/03/03 00:24:40;;;;;;;;;;;18.80;77.50;;;;;;5074740;28;19952;-47
2023/03/03 00:27:26;;;;;;;;;;;18.80;77.30;;;;;;5056800;28;20228;-48
2023/03/03 00:29:58;;;;;;;;;;;18.90;77.40;;;;;;5074605;28;19916;-50
2023/03/03 00:32:30;;;;;;;;;;;19.00;77.40;;;;;;5056875;28;20251;-51
2023/03/03 00:34:59;;;;;;;;;;;19.00;77.20;;;;;;5074501;28;19940;-47
2023/03/03 00:37:32;;;;;;;;;;;19.20;77.10;;;;;;5074465;28;19905;-48
2023/03/03 00:40:01;;;;;;;;;;;19.30;76.90;;;;;;5056384;28;20244;-52
2023/03/03 00:42:27;;;;;;;;;;;19.30;76.60;;;;;;5074079;28;19909;-48
2023/03/03 00:44:56;;;;;;;;;;;19.30;76.50;;;;;;5074037;28;19918;-52
2023/03/03 00:47:27;;;;;;;;;;;19.40;76.30;;;;;;5056278;28;19904;-51
2023/03/03 00:49:53;;;;;;;;;;;19.40;76.60;;;;;;5074346;28;19904;-48
2023/03/03 00:52:19;;;;;;;;;;;19.40;76.30;;;;;;5074000;28;19908;-48
2023/03/03 00:54:45;;;;;;;;;;;19.40;76.30;;;;;;5056219;28;20229;-47
2023/03/03 00:57:11;;;;;;;;;;;19.40;76.30;;;;;;5056299;28;19954;-48
2023/03/03 00:59:37;;;;;;;;;;;19.40;76.70;;;;;;5073885;28;19905;-49
2023/03/03 01:02:02;;;;;;;;;;;19.40;76.60;;;;;;5084119;28;19962;-48
2023/03/03 01:04:28;;;;;;;;;;;19.50;76.30;;;;;;5094332;28;20308;-49
2023/03/03 01:06:53;;;;;;;;;;;19.60;76.10;;;;;;5076134;28;20007;-48
2023/03/03 01:09:19;;;;;;;;;;;19.70;76.20;;;;;;5094311;28;19904;-48
2023/03/03 01:11:44;;;;;;;;;;;19.80;75.80;;;;;;5076168;28;20258;-49
2023/03/03 01:14:10;;;;;;;;;;;19.70;76.00;;;;;;5094222;28;19908;-49
2023/03/03 01:16:35;;;;;;;;;;;19.70;75.70;;;;;;5094234;28;19912;-49
2023/03/03 01:19:01;;;;;;;;;;;19.60;76.10;;;;;;5094199;28;19940;-51
2023/03/03 01:21:26;;;;;;;;;;;19.40;76.10;;;;;;5094223;28;19912;-51
2023/03/03 01:23:52;;;;;;;;;;;19.30;76.80;;;;;;5094062;28;20422;-47
2023/03/03 01:26:17;;;;;;;;;;;19.20;76.90;;;;;;5093819;28;19905;-51
2023/03/03 01:28:43;;;;;;;;;;;19.20;77.30;;;;;;5094413;28;19904;-52
2023/03/03 01:31:08;;;;;;;;;;;19.10;77.20;;;;;;5094099;28;20006;-49
2023/03/03 01:33:34;;;;;;;;;;;19.20;77.30;;;;;;5094115;28;20351;-49
2023/03/03 01:36:00;;;;;;;;;;;19.20;77.00;;;;;;5094046;28;19910;-51
2023/03/03 01:38:25;;;;;;;;;;;19.30;77.00;;;;;;5094048;28;20263;-49
2023/03/03 01:40:55;;;;;;;;;;;19.40;76.70;;;;;;5094187;28;19965;-49
2023/03/03 01:43:21;;;;;;;;;;;19.50;76.50;;;;;;5093956;28;19908;-51
2023/03/03 01:45:46;;;;;;;;;;;19.60;76.30;;;;;;5075832;28;19915;-49
2023/03/03 01:48:15;;;;;;;;;;;19.60;76.20;;;;;;5093926;28;19904;-47
2023/03/03 01:50:40;;;;;;;;;;;19.70;76.10;;;;;;5094497;28;20361;-53
2023/03/03 01:53:11;;;;;;;;;;;19.60;75.90;;;;;;5093913;28;19904;-51
2023/03/03 01:55:37;;;;;;;;;;;19.50;76.30;;;;;;5093991;28;19904;-51
2023/03/03 01:58:06;;;;;;;;;;;19.40;76.40;;;;;;5093560;28;19904;-48
2023/03/03 02:00:33;;;;;;;;;;;19.40;76.90;;;;;;5075844;28;19953;-51
2023/03/03 02:02:58;;;;;;;;;;;19.30;77.00;;;;;;5074542;28;19958;-52
2023/03/03 02:05:24;;;;;;;;;;;19.30;77.30;;;;;;5073311;28;19912;-50
2023/03/03 02:07:50;;;;;;;;;;;19.20;77.30;;;;;;5073609;28;19958;-48
2023/03/03 02:10:17;;;;;;;;;;;19.30;77.30;;;;;;5073542;28;20420;-50
2023/03/03 02:12:47;;;;;;;;;;;19.30;77.20;;;;;;5075055;28;20336;-49
2023/03/03 02:15:26;;;;;;;;;;;19.50;76.60;;;;;;5076890;28;20003;-49
2023/03/03 02:17:56;;;;;;;;;;;19.60;76.20;;;;;;5076821;28;19915;-52
2023/03/03 02:20:34;;;;;;;;;;;19.80;75.70;;;;;;5076755;28;20418;-50
2023/03/03 02:23:05;;;;;;;;;;;19.90;75.60;;;;;;5076729;28;19953;-50
2023/03/03 02:25:36;;;;;;;;;;;19.80;75.70;;;;;;5077041;28;19971;-49
2023/03/03 02:28:01;;;;;;;;;;;19.70;76.20;;;;;;5077079;28;19912;-52
2023/03/03 02:30:27;;;;;;;;;;;19.60;76.20;;;;;;5076599;28;19905;-52
2023/03/03 02:32:52;;;;;;;;;;;19.50;76.50;;;;;;5076851;28;19905;-49
2023/03/03 02:35:21;;;;;;;;;;;19.40;77.00;;;;;;5058872;28;19908;-52
2023/03/03 02:37:47;;;;;;;;;;;19.20;77.40;;;;;;5076404;28;19905;-52
2023/03/03 02:40:13;;;;;;;;;;;19.10;77.50;;;;;;5076604;28;19924;-48
2023/03/03 02:42:38;;;;;;;;;;;19.10;77.70;;;;;;5058492;28;19958;-49
2023/03/03 02:45:04;;;;;;;;;;;19.20;77.70;;;;;;5076655;28;19919;-53
2023/03/03 02:47:30;;;;;;;;;;;19.30;77.20;;;;;;5076198;28;20264;-50
2023/03/03 02:49:55;;;;;;;;;;;19.50;77.20;;;;;;5076230;28;19940;-47
2023/03/03 02:52:21;;;;;;;;;;;19.70;76.40;;;;;;5058527;28;19908;-49
2023/03/03 02:54:46;;;;;;;;;;;19.90;76.00;;;;;;5076161;28;20343;-50
2023/03/03 02:57:12;;;;;;;;;;;20.00;75.60;;;;;;5076383;28;20003;-49
2023/03/03 02:59:37;;;;;;;;;;;20.00;75.40;;;;;;5076373;28;19915;-48
2023/03/03 03:02:03;;;;;;;;;;;20.00;75.60;;;;;;5087308;28;19908;-49
2023/03/03 03:04:28;;;;;;;;;;;19.90;75.90;;;;;;5096318;28;20407;-51
2023/03/03 03:06:54;;;;;;;;;;;19.70;76.10;;;;;;5096131;28;19957;-49
2023/03/03 03:09:21;;;;;;;;;;;19.60;76.70;;;;;;5096407;28;20357;-51
2023/03/03 03:11:47;;;;;;;;;;;19.50;76.60;;;;;;5078169;28;19904;-50
2023/03/03 03:14:13;;;;;;;;;;;19.40;77.00;;;;;;5096299;28;19911;-48
2023/03/03 03:16:39;;;;;;;;;;;19.30;77.20;;;;;;5096549;28;19915;-50
2023/03/03 03:19:04;;;;;;;;;;;19.30;77.40;;;;;;5096267;28;20222;-48
2023/03/03 03:21:30;;;;;;;;;;;19.30;77.30;;;;;;5078061;28;19904;-51
2023/03/03 03:23:56;;;;;;;;;;;19.40;77.30;;;;;;5077191;28;19908;-48
2023/03/03 03:26:22;;;;;;;;;;;19.50;76.80;;;;;;5095845;28;19916;-49
2023/03/03 03:28:48;;;;;;;;;;;19.70;76.30;;;;;;5095734;28;19908;-49
2023/03/03 03:31:13;;;;;;;;;;;19.90;76.20;;;;;;5095988;28;19910;-50
2023/03/03 03:33:38;;;;;;;;;;;20.00;75.90;;;;;;5095638;28;19951;-53
2023/03/03 03:36:05;;;;;;;;;;;20.00;75.80;;;;;;5095541;28;19904;-53
2023/03/03 03:38:31;;;;;;;;;;;19.90;75.70;;;;;;5095884;28;19904;-48
2023/03/03 03:40:56;;;;;;;;;;;19.80;75.80;;;;;;5095213;28;19956;-49
2023/03/03 03:43:21;;;;;;;;;;;19.70;76.30;;;;;;5095776;28;20408;-51
2023/03/03 03:45:47;;;;;;;;;;;19.50;76.80;;;;;;5095386;28;20354;-50
2023/03/03 03:48:13;;;;;;;;;;;19.40;77.10;;;;;;5095323;28;19904;-51
2023/03/03 03:50:38;;;;;;;;;;;19.30;77.40;;;;;;5095589;28;19931;-50
2023/03/03 03:53:04;;;;;;;;;;;19.20;77.50;;;;;;5095256;28;19910;-50
2023/03/03 03:55:30;;;;;;;;;;;19.20;77.40;;;;;;5095593;28;19993;-51
2023/03/03 03:57:56;;;;;;;;;;;19.20;77.50;;;;;;5095777;28;20000;-51
2023/03/03 04:00:22;;;;;;;;;;;19.30;77.30;;;;;;5095431;28;19911;-52
2023/03/03 04:02:47;;;;;;;;;;;19.40;77.00;;;;;;5059946;28;19909;-52
2023/03/03 04:05:13;;;;;;;;;;;19.60;76.80;;;;;;5057117;28;20014;-51
2023/03/03 04:07:38;;;;;;;;;;;19.80;76.40;;;;;;5074983;28;19951;-50
2023/03/03 04:10:04;;;;;;;;;;;20.00;76.10;;;;;;5074914;28;19931;-52
2023/03/03 04:12:34;;;;;;;;;;;20.10;75.40;;;;;;5075239;28;19991;-53
2023/03/03 04:15:00;;;;;;;;;;;20.10;75.60;;;;;;5057021;28;20335;-48
2023/03/03 04:17:25;;;;;;;;;;;20.00;75.70;;;;;;5074808;28;19904;-52
2023/03/03 04:19:52;;;;;;;;;;;19.90;75.90;;;;;;5074524;28;19908;-47
2023/03/03 04:22:17;;;;;;;;;;;19.80;76.30;;;;;;5074907;28;20008;-49
2023/03/03 04:24:43;;;;;;;;;;;19.70;76.80;;;;;;5056728;28;19960;-52
2023/03/03 04:27:08;;;;;;;;;;;19.50;77.00;;;;;;5056621;28;20335;-50
2023/03/03 04:29:34;;;;;;;;;;;19.40;77.20;;;;;;5074491;28;19911;-53
2023/03/03 04:31:59;;;;;;;;;;;19.30;77.50;;;;;;5056577;28;19911;-51
2023/03/03 04:34:25;;;;;;;;;;;19.30;77.30;;;;;;5074161;28;19908;-54
2023/03/03 04:36:50;;;;;;;;;;;19.40;77.60;;;;;;5073482;28;19946;-51
2023/03/03 04:39:16;;;;;;;;;;;19.50;77.50;;;;;;5074017;28;19916;-51
2023/03/03 04:41:41;;;;;;;;;;;19.60;77.50;;;;;;5074417;28;19904;-51
2023/03/03 04:44:06;;;;;;;;;;;19.80;76.50;;;;;;5074663;28;19908;-48
2023/03/03 04:46:32;;;;;;;;;;;20.00;76.00;;;;;;5074012;28;19911;-50
2023/03/03 04:48:57;;;;;;;;;;;20.10;75.80;;;;;;5056301;28;19908;-51
2023/03/03 04:51:23;;;;;;;;;;;20.20;75.80;;;;;;5074013;28;20339;-51
2023/03/03 04:53:48;;;;;;;;;;;20.00;75.60;;;;;;5056285;28;19911;-50
2023/03/03 04:56:14;;;;;;;;;;;20.00;76.00;;;;;;5074264;28;19904;-53
2023/03/03 04:58:39;;;;;;;;;;;19.80;76.50;;;;;;5074555;28;19935;-53
2023/03/03 05:01:05;;;;;;;;;;;19.70;76.60;;;;;;5077390;28;19911;-52
2023/03/03 05:03:30;;;;;;;;;;;19.50;76.90;;;;;;5094297;28;20323;-48
2023/03/03 05:05:56;;;;;;;;;;;19.40;77.20;;;;;;5094108;28;20343;-49
2023/03/03 05:08:22;;;;;;;;;;;19.30;77.40;;;;;;5093876;28;19904;-50
2023/03/03 05:10:51;;;;;;;;;;;19.20;77.80;;;;;;5093878;28;20073;-50
2023/03/03 05:13:17;;;;;;;;;;;19.20;77.90;;;;;;5094161;28;19912;-49
2023/03/03 05:15:42;;;;;;;;;;;19.30;78.30;;;;;;5093923;28;19904;-53
2023/03/03 05:18:08;;;;;;;;;;;19.40;77.70;;;;;;5094134;28;19955;-51
2023/03/03 05:20:33;;;;;;;;;;;19.60;77.20;;;;;;5094427;28;20323;-49
2023/03/03 05:23:00;;;;;;;;;;;19.80;76.70;;;;;;5075996;28;20250;-49
2023/03/03 05:25:25;;;;;;;;;;;20.00;76.20;;;;;;5094019;28;19908;-52
2023/03/03 05:27:51;;;;;;;;;;;20.10;76.00;;;;;;5094037;28;19961;-52
2023/03/03 05:30:17;;;;;;;;;;;20.30;75.50;;;;;;5093692;28;19908;-50
2023/03/03 05:32:42;;;;;;;;;;;20.20;75.40;;;;;;5075760;28;20002;-50
2023/03/03 05:35:08;;;;;;;;;;;20.10;75.80;;;;;;5093786;28;19908;-49
2023/03/03 05:37:33;;;;;;;;;;;20.00;76.10;;;;;;5094003;28;19908;-54
2023/03/03 05:39:59;;;;;;;;;;;19.80;76.20;;;;;;5093906;28;19931;-49
2023/03/03 05:42:24;;;;;;;;;;;19.70;76.60;;;;;;5093534;28;19908;-52
2023/03/03 05:44:50;;;;;;;;;;;19.60;77.10;;;;;;5067341;28;19916;-49
2023/03/03 05:47:15;;;;;;;;;;;19.40;77.20;;;;;;5072184;28;19909;-49
2023/03/03 05:49:40;;;;;;;;;;;19.30;77.20;;;;;;5077436;28;19912;-52
2023/03/03 05:52:07;;;;;;;;;;;19.30;77.70;;;;;;5077184;28;20374;-50
2023/03/03 05:54:33;;;;;;;;;;;19.30;77.60;;;;;;5077391;28;20343;-54
2023/03/03 05:56:59;;;;;;;;;;;19.40;77.60;;;;;;5077055;28;20006;-53
2023/03/03 05:59:24;;;;;;;;;;;19.60;77.40;;;;;;5078368;28;20275;-52
2023/03/03 06:01:50;;;;;;;;;;;19.90;76.70;;;;;;5084789;28;19908;-52
2023/03/03 06:04:15;;;;;;;;;;;20.10;76.40;;;;;;5077525;28;19912;-53
2023/03/03 06:06:41;;;;;;;;;;;20.20;75.60;;;;;;5077088;28;19913;-51
2023/03/03 06:09:06;;;;;;;;;;;20.30;75.50;;;;;;5054865;28;19912;-51
2023/03/03 06:11:32;;;;;;;;;;;20.40;76.20;;;;;;5072642;28;20395;-54
2023/03/03 06:13:57;;;;;;;;;;;20.20;75.60;;;;;;5075223;28;19913;-52
2023/03/03 06:16:23;;;;;;;;;;;20.10;76.10;;;;;;5057343;28;20360;-52
2023/03/03 06:18:48;;;;;;;;;;;19.90;76.60;;;;;;5073984;28;19994;-51
2023/03/03 06:21:13;;;;;;;;;;;19.70;76.80;;;;;;5072710;28;19917;-49
2023/03/03 06:23:39;;;;;;;;;;;19.60;77.00;;;;;;5074426;28;19916;-52
2023/03/03 06:26:05;;;;;;;;;;;19.40;77.40;;;;;;5058570;28;19948;-52
2023/03/03 06:28:30;;;;;;;;;;;19.30;77.90;;;;;;5058004;28;20007;-53
2023/03/03 06:30:56;;;;;;;;;;;19.20;78.00;;;;;;5074126;28;20004;-53
2023/03/03 06:33:21;;;;;;;;;;;19.10;78.10;;;;;;5073038;28;19913;-50
2023/03/03 06:35:51;;;;;;;;;;;19.10;78.10;;;;;;5074262;28;19938;-53
2023/03/03 06:38:16;;;;;;;;;;;19.10;78.20;;;;;;5070320;28;20366;-52
2023/03/03 06:40:42;;;;;;;;;;;19.10;78.20;;;;;;5076404;28;19920;-54
2023/03/03 06:43:08;;;;;;;;;;;19.00;78.00;;;;;;5074913;28;19923;-54
2023/03/03 06:45:33;;;;;;;;;;;19.00;78.10;;;;;;5075106;28;20292;-54
2023/03/03 06:47:59;;;;;;;;;;;19.10;78.10;;;;;;5076294;28;19909;-52
2023/03/03 06:50:24;;;;;;;;;;;19.10;78.00;;;;;;5075317;28;19909;-53
2023/03/03 06:52:58;;;;;;;;;;;19.20;77.70;;;;;;5073309;28;19913;-51
2023/03/03 06:55:23;;;;;;;;;;;19.20;77.50;;;;;;5055446;28;19919;-49
2023/03/03 06:57:49;;;;;;;;;;;19.40;77.50;;;;;;5057064;28;19908;-53
2023/03/03 07:00:19;;;;;;;;;;;19.50;77.20;;;;;;5073164;28;19920;-52
2023/03/03 07:02:46;;;;;;;;;;;19.70;76.80;;;;;;5087984;28;20286;-53
2023/03/03 07:05:13;;;;;;;;;;;19.80;76.20;;;;;;5071828;28;20275;-52
2023/03/03 07:07:39;;;;;;;;;;;20.00;76.00;;;;;;5072904;28;19998;-50
2023/03/03 07:10:18;;;;;;;;;;;20.10;75.60;;;;;;5056091;28;19977;-50
2023/03/03 07:12:44;;;;;;;;;;;20.10;75.60;;;;;;5057813;28;19935;-51
2023/03/03 07:15:12;;;;;;;;;;;20.00;75.70;;;;;;5074125;28;20321;-52
2023/03/03 07:17:41;;;;;;;;;;;19.80;75.90;;;;;;5072944;28;20013;-51
2023/03/03 07:20:29;;;;;;;;;;;19.70;76.20;;;;;;5072092;28;20011;-50
2023/03/03 07:22:55;;;;;;;;;;;19.60;76.50;;;;;;5060888;28;20325;-51
2023/03/03 07:25:28;;;;;;;;;;;19.40;76.60;;;;;;5075341;28;19913;-52
2023/03/03 07:27:57;;;;;;;;;;;19.30;77.40;;;;;;5072741;28;19916;-51
2023/03/03 07:30:27;;;;;;;;;;;19.20;77.70;;;;;;5069155;28;19912;-51
2023/03/03 07:32:55;;;;;;;;;;;19.10;77.80;;;;;;5070348;28;20267;-54
2023/03/03 07:35:35;;;;;;;;;;;19.20;78.50;;;;;;5075262;28;19908;-53
2023/03/03 07:38:01;;;;;;;;;;;19.30;78.80;;;;;;5063044;28;20338;-49
2023/03/03 07:40:29;;;;;;;;;;;19.50;78.00;;;;;;5045192;28;19952;-52
2023/03/03 07:42:55;;;;;;;;;;;19.70;77.50;;;;;;5074972;28;19912;-50
2023/03/03 07:45:23;;;;;;;;;;;19.80;77.10;;;;;;5072451;28;19931;-52
2023/03/03 07:47:49;;;;;;;;;;;19.90;76.70;;;;;;5070801;28;19917;-50
2023/03/03 07:50:17;;;;;;;;;;;20.10;76.50;;;;;;5073525;28;20417;-53
2023/03/03 07:52:45;;;;;;;;;;;20.00;71.00;;;;;;5073103;28;20255;-49
2023/03/03 07:55:37;;;;;;;;;;;19.40;70.00;;;;;;5071414;28;19955;-51
2023/03/03 07:58:22;;;;;;;;;;;19.10;72.40;;;;;;5065951;28;19913;-51
2023/03/03 08:01:11;;;;;;;;;;;19.30;74.90;;;;;;5074777;28;19912;-52
2023/03/03 08:03:37;;;;;;;;;;;19.40;75.70;;;;;;5065536;28;20255;-52
2023/03/03 08:06:25;;;;;;;;;;;19.40;75.70;;;;;;5094729;28;19970;-53
2023/03/03 08:08:51;;;;;;;;;;;19.40;76.00;;;;;;5094791;28;19942;-51
2023/03/03 08:11:16;;;;;;;;;;;19.40;76.20;;;;;;5094754;28;19908;-52
2023/03/03 08:13:42;;;;;;;;;;;19.40;76.30;;;;;;5094710;28;19908;-52
2023/03/03 08:16:07;;;;;;;;;;;19.40;76.50;;;;;;5076028;28;20032;-51
2023/03/03 08:18:46;;;;;;;;;;;19.40;76.80;;;;;;5094910;28;19908;-51
2023/03/03 08:21:13;;;;;;;;;;;19.50;76.40;;;;;;5094545;28;19924;-50
2023/03/03 08:23:39;;;;;;;;;;;19.60;76.10;;;;;;5094477;28;19965;-53
2023/03/03 08:26:04;;;;;;;;;;;19.70;76.00;;;;;;5094404;28;19916;-52
2023/03/03 08:28:30;;;;;;;;;;;19.70;76.00;;;;;;5076313;28;19922;-51
2023/03/03 08:30:55;;;;;;;;;;;19.80;76.00;;;;;;5076309;28;19908;-49
2023/03/03 08:33:21;;;;;;;;;;;19.90;75.90;;;;;;5076457;28;19908;-52
2023/03/03 08:35:47;;;;;;;;;;;19.90;75.90;;;;;;5094192;28;20351;-59
2023/03/03 08:38:15;;;;;;;;;;;20.00;75.90;;;;;;5094475;28;19908;-51
2023/03/03 08:40:41;;;;;;;;;;;19.90;75.70;;;;;;5094616;28;19927;-49
2023/03/03 08:43:07;;;;;;;;;;;19.80;75.80;;;;;;5094334;28;19917;-52
2023/03/03 08:45:33;;;;;;;;;;;19.80;76.10;;;;;;5094165;28;19965;-51
2023/03/03 08:47:58;;;;;;;;;;;19.70;76.30;;;;;;5093712;28;19912;-51
2023/03/03 08:50:26;;;;;;;;;;;19.60;76.60;;;;;;5093888;28;20343;-54
2023/03/03 08:52:51;;;;;;;;;;;19.50;76.70;;;;;;5094078;28;19954;-51
2023/03/03 08:55:17;;;;;;;;;;;19.50;76.90;;;;;;5076098;28;19908;-51
2023/03/03 08:57:43;;;;;;;;;;;19.40;77.30;;;;;;5093675;28;19908;-53
2023/03/03 09:00:10;;;;;;;;;;;19.60;77.20;;;;;;5093810;28;20355;-52
2023/03/03 09:02:35;;;;;;;;;;;19.70;77.10;;;;;;5078078;28;20280;-51
2023/03/03 09:05:01;;;;;;;;;;;19.80;76.60;;;;;;5073277;28;19913;-53
2023/03/03 09:07:26;;;;;;;;;;;20.00;76.20;;;;;;5073798;28;19916;-49
2023/03/03 09:09:52;;;;;;;;;;;20.10;75.90;;;;;;5073670;28;19912;-53
2023/03/03 09:12:20;;;;;;;;;;;20.20;75.60;;;;;;5073608;28;19915;-47
2023/03/03 09:14:46;;;;;;;;;;;20.20;75.50;;;;;;5073446;28;19915;-53
2023/03/03 09:17:44;;;;;;;;;;;20.20;75.70;;;;;;5073402;28;19909;-53
2023/03/03 09:20:30;;;;;;;;;;;20.10;75.70;;;;;;5039087;28;20364;-49
2023/03/03 09:22:55;;;;;;;;;;;20.00;75.90;;;;;;5075573;28;20027;-50
2023/03/03 09:25:32;;;;;;;;;;;19.90;76.10;;;;;;5059697;28;19956;-49
2023/03/03 09:27:58;;;;;;;;;;;19.80;76.60;;;;;;5077443;28;19909;-51
2023/03/03 09:30:23;;;;;;;;;;;19.70;76.80;;;;;;5077710;28;19915;-51
2023/03/03 09:32:48;;;;;;;;;;;19.70;76.80;;;;;;5059796;28;19909;-48
2023/03/03 09:35:35;;;;;;;;;;;19.70;76.80;;;;;;5059690;28;19915;-51
2023/03/03 09:38:01;;;;;;;;;;;19.80;76.70;;;;;;5077660;28;19916;-50
2023/03/03 09:40:45;;;;;;;;;;;19.90;76.70;;;;;;5077839;28;20275;-49
2023/03/03 09:43:12;;;;;;;;;;;20.10;76.30;;;;;;5059588;28;19912;-53
2023/03/03 09:45:51;;;;;;;;;;;20.20;76.00;;;;;;5076963;28;20055;-53
2023/03/03 09:48:23;;;;;;;;;;;20.30;75.70;;;;;;5077156;28;19915;-51
2023/03/03 09:51:08;;;;;;;;;;;20.30;75.70;;;;;;5058995;28;19920;-51
2023/03/03 09:53:52;;;;;;;;;;;20.20;75.80;;;;;;5076854;28;20314;-51
2023/03/03 09:56:33;;;;;;;;;;;20.10;76.10;;;;;;5076956;28;19966;-51
2023/03/03 09:59:06;;;;;;;;;;;20.00;76.30;;;;;;5076945;28;20026;-49
2023/03/03 10:01:51;;;;;;;;;;;19.80;76.40;;;;;;5084317;28;19943;-52
2023/03/03 10:04:35;;;;;;;;;;;19.70;77.10;;;;;;5097246;28;19920;-51
2023/03/03 10:07:14;;;;;;;;;;;19.60;77.30;;;;;;5097145;28;19908;-54
2023/03/03 10:09:45;;;;;;;;;;;19.60;77.20;;;;;;5097502;28;20228;-53
2023/03/03 10:12:11;;;;;;;;;;;19.70;77.20;;;;;;5097681;28;19908;-52
2023/03/03 10:14:55;;;;;;;;;;;19.80;76.80;;;;;;5097237;28;19938;-54
2023/03/03 10:17:29;;;;;;;;;;;20.00;76.70;;;;;;5096764;28;19939;-51
2023/03/03 10:20:01;;;;;;;;;;;20.20;76.40;;;;;;5097005;28;19908;-49
2023/03/03 10:22:27;;;;;;;;;;;20.30;76.00;;;;;;5096535;28;19912;-53
2023/03/03 10:25:07;;;;;;;;;;;20.30;75.70;;;;;;5096955;28;19912;-50
2023/03/03 10:27:33;;;;;;;;;;;20.30;75.90;;;;;;5096879;28;19909;-52
2023/03/03 10:30:18;;;;;;;;;;;20.20;76.00;;;;;;5096610;28;19965;-51
2023/03/03 10:32:59;;;;;;;;;;;20.10;76.00;;;;;;5054635;28;19908;-50
2023/03/03 10:36:03;;;;;;;;;;;20.10;76.20;;;;;;5096247;28;19970;-53
2023/03/03 10:38:37;;;;;;;;;;;20.00;76.50;;;;;;5014310;28;19914;-52
2023/03/03 10:41:12;;;;;;;;;;;19.90;76.80;;;;;;5013943;28;19921;-48
2023/03/03 10:43:50;;;;;;;;;;;19.80;76.90;;;;;;5044501;28;19916;-49
2023/03/03 10:46:15;;;;;;;;;;;19.80;77.20;;;;;;5078574;28;20014;-53
2023/03/03 10:49:01;;;;;;;;;;;19.80;77.00;;;;;;5078437;28;20350;-52
2023/03/03 10:51:30;;;;;;;;;;;19.90;76.80;;;;;;5095632;28;19909;-49
2023/03/03 10:54:02;;;;;;;;;;;20.00;76.70;;;;;;5095971;28;19950;-50
2023/03/03 10:56:33;;;;;;;;;;;20.00;76.50;;;;;;5077652;28;19915;-50
2023/03/03 10:59:03;;;;;;;;;;;20.20;76.20;;;;;;5096334;28;19912;-53
2023/03/03 11:01:32;;;;;;;;;;;20.30;76.20;;;;;;5090358;28;19935;-52
2023/03/03 11:04:05;;;;;;;;;;;20.30;75.80;;;;;;5058014;28;19995;-51
2023/03/03 11:06:30;;;;;;;;;;;20.30;76.00;;;;;;5075528;28;19995;-53
2023/03/03 11:09:04;;;;;;;;;;;20.20;76.00;;;;;;5075829;28;20366;-50
2023/03/03 11:11:42;;;;;;;;;;;20.20;76.00;;;;;;5075665;28;20365;-52
2023/03/03 11:14:12;;;;;;;;;;;20.00;76.20;;;;;;5057883;28;20235;-51
2023/03/03 11:16:42;;;;;;;;;;;20.00;76.40;;;;;;5075562;28;19908;-54
2023/03/03 11:19:16;;;;;;;;;;;19.90;76.80;;;;;;5075533;28;19908;-50
2023/03/03 11:22:00;;;;;;;;;;;19.90;76.90;;;;;;5075305;28;19953;-53
2023/03/03 11:24:55;;;;;;;;;;;19.90;76.90;;;;;;5075065;28;19960;-52
2023/03/03 11:27:25;;;;;;;;;;;20.00;76.80;;;;;;5061502;28;19988;-53
2023/03/03 11:30:00;;;;;;;;;;;20.10;76.60;;;;;;5075078;28;19909;-51
2023/03/03 11:32:32;;;;;;;;;;;20.20;76.60;;;;;;5056926;28;19916;-53
2023/03/03 11:35:03;;;;;;;;;;;20.30;76.20;;;;;;5074970;28;19962;-53
2023/03/03 11:37:32;;;;;;;;;;;20.40;76.00;;;;;;5075113;28;19916;-54
2023/03/03 11:40:00;;;;;;;;;;;20.30;76.20;;;;;;5075054;28;19920;-50
2023/03/03 11:42:39;;;;;;;;;;;20.30;76.10;;;;;;5074635;28;20348;-54
2023/03/03 11:45:16;;;;;;;;;;;20.20;76.20;;;;;;5074374;28;19912;-52
2023/03/03 11:47:48;;;;;;;;;;;20.00;76.40;;;;;;5074499;28;19909;-52
2023/03/03 11:50:19;;;;;;;;;;;19.90;76.70;;;;;;5074833;28;20042;-54
2023/03/03 11:52:44;;;;;;;;;;;19.80;77.00;;;;;;5074463;28;20375;-54
2023/03/03 11:55:16;;;;;;;;;;;19.80;77.40;;;;;;5074324;28;19908;-51
2023/03/03 11:58:14;;;;;;;;;;;19.70;77.20;;;;;;5074248;28;20003;-51
2023/03/03 12:00:57;;;;;;;;;;;19.80;77.40;;;;;;5040263;28;19945;-50
2023/03/03 12:03:37;;;;;;;;;;;19.80;77.20;;;;;;5058061;28;20020;-51
2023/03/03 12:06:06;;;;;;;;;;;20.00;77.00;;;;;;5063696;28;20019;-50
2023/03/03 12:08:40;;;;;;;;;;;20.20;76.80;;;;;;5073203;28;19908;-53
2023/03/03 12:11:24;;;;;;;;;;;20.30;76.30;;;;;;5068820;28;20405;-53
2023/03/03 12:13:56;;;;;;;;;;;20.40;75.90;;;;;;5073091;28;19916;-52
2023/03/03 12:16:39;;;;;;;;;;;20.50;75.80;;;;;;5054329;28;19912;-52
2023/03/03 12:19:25;;;;;;;;;;;20.50;76.40;;;;;;5066874;28;19919;-49
2023/03/03 12:21:59;;;;;;;;;;;20.40;75.80;;;;;;5063438;28;19913;-51
2023/03/03 12:24:41;;;;;;;;;;;20.20;76.00;;;;;;5091426;28;19916;-51
2023/03/03 12:27:12;;;;;;;;;;;20.10;76.40;;;;;;5073441;28;20003;-50
2023/03/03 12:30:05;;;;;;;;;;;20.00;76.80;;;;;;5071160;28;19913;-53
2023/03/03 12:32:46;;;;;;;;;;;19.90;76.70;;;;;;5050891;28;19919;-52
2023/03/03 12:35:34;;;;;;;;;;;19.90;76.90;;;;;;5056915;28;20406;-53
2023/03/03 12:38:08;;;;;;;;;;;19.90;77.00;;;;;;5074002;28;19909;-50
2023/03/03 12:40:35;;;;;;;;;;;20.00;77.10;;;;;;5086689;28;20359;-50
2023/03/03 12:43:00;;;;;;;;;;;20.10;76.80;;;;;;5092914;28;20007;-54
2023/03/03 12:45:31;;;;;;;;;;;20.30;76.50;;;;;;5077209;28;20412;-52
2023/03/03 12:48:07;;;;;;;;;;;20.50;76.10;;;;;;5073883;28;19908;-50
2023/03/03 12:50:39;;;;;;;;;;;20.50;75.70;;;;;;5071999;28;19908;-52
2023/03/03 12:53:13;;;;;;;;;;;20.50;76.50;;;;;;5072102;28;19915;-54
2023/03/03 12:55:54;;;;;;;;;;;20.50;76.10;;;;;;5071986;28;19939;-54
2023/03/03 12:58:19;;;;;;;;;;;20.40;76.30;;;;;;5070479;28;20274;-55
2023/03/03 13:00:57;;;;;;;;;;;20.30;76.50;;;;;;5072109;28;19909;-56
2023/03/03 13:03:34;;;;;;;;;;;20.20;76.50;;;;;;5091918;28;20425;-53
2023/03/03 13:06:05;;;;;;;;;;;20.00;77.20;;;;;;5093613;28;19912;-54
2023/03/03 13:08:37;;;;;;;;;;;20.00;77.50;;;;;;5093177;28;19908;-54
2023/03/03 13:11:18;;;;;;;;;;;20.00;77.40;;;;;;5093637;28;20255;-52
2023/03/03 13:13:52;;;;;;;;;;;20.00;77.20;;;;;;5076000;28;20270;-51
2023/03/03 13:16:24;;;;;;;;;;;20.10;77.10;;;;;;5093877;28;19908;-51
2023/03/03 13:18:53;;;;;;;;;;;20.20;76.80;;;;;;5093420;28;19915;-52
2023/03/03 13:21:31;;;;;;;;;;;20.40;76.40;;;;;;5093427;28;19920;-50
2023/03/03 13:24:23;;;;;;;;;;;20.50;76.20;;;;;;5075456;28;20435;-50
2023/03/03 13:26:54;;;;;;;;;;;20.50;75.90;;;;;;5044993;28;19916;-50
2023/03/03 13:29:25;;;;;;;;;;;20.60;75.80;;;;;;5075505;28;19991;-53
2023/03/03 13:31:54;;;;;;;;;;;20.60;75.80;;;;;;5093482;28;20385;-49
2023/03/03 13:34:38;;;;;;;;;;;20.60;76.10;;;;;;5092950;28;19908;-51
2023/03/03 13:37:06;;;;;;;;;;;20.50;76.10;;;;;;5075405;28;19908;-54
2023/03/03 13:39:34;;;;;;;;;;;20.40;76.50;;;;;;5075308;28;19924;-53
2023/03/03 13:42:09;;;;;;;;;;;20.30;76.50;;;;;;5093993;28;19908;-53
2023/03/03 13:44:40;;;;;;;;;;;20.20;76.80;;;;;;5075360;28;19924;-53
2023/03/03 13:47:15;;;;;;;;;;;20.10;77.60;;;;;;5093542;28;20309;-53
2023/03/03 13:49:59;;;;;;;;;;;20.10;77.30;;;;;;5075055;28;19909;-53
2023/03/03 13:52:41;;;;;;;;;;;20.00;77.30;;;;;;5074638;28;19951;-51
2023/03/03 13:55:12;;;;;;;;;;;20.00;77.10;;;;;;5093384;28;19909;-49
2023/03/03 13:57:41;;;;;;;;;;;20.10;77.30;;;;;;5093057;28;19951;-54
2023/03/03 14:00:25;;;;;;;;;;;20.20;77.10;;;;;;5093159;28;20247;-51
2023/03/03 14:02:56;;;;;;;;;;;20.30;76.60;;;;;;5075026;28;19912;-53
2023/03/03 14:05:40;;;;;;;;;;;20.50;76.60;;;;;;5073205;28;19912;-52
2023/03/03 14:08:12;;;;;;;;;;;20.50;76.40;;;;;;5073222;28;19912;-51
2023/03/03 14:10:46;;;;;;;;;;;20.50;76.30;;;;;;5062328;28;19924;-52
2023/03/03 14:13:14;;;;;;;;;;;20.40;76.70;;;;;;5058836;28;19908;-52
2023/03/03 14:15:48;;;;;;;;;;;20.30;76.60;;;;;;5066829;28;19912;-52
2023/03/03 14:18:19;;;;;;;;;;;20.20;77.20;;;;;;5077000;28;20008;-53
2023/03/03 14:20:52;;;;;;;;;;;20.10;77.50;;;;;;5076801;28;19915;-54
2023/03/03 14:23:31;;;;;;;;;;;20.00;77.50;;;;;;5076333;28;19912;-53
2023/03/03 14:26:02;;;;;;;;;;;20.00;77.50;;;;;;5080362;28;19916;-51
2023/03/03 14:28:28;;;;;;;;;;;20.00;77.70;;;;;;5080461;28;19932;-52
2023/03/03 14:30:55;;;;;;;;;;;20.10;77.20;;;;;;5076183;28;20262;-52